Aérodrome :
LOGIN :

S'inscrire | Disclaimer

   EN    FR    IT 

 










Légende :    VFR   VFR Marginal   IFR   IFR Intensif   IFR Très Intensif
Visi : 
Plafond : 
>= 8 km
>= 3000ft
5 à 8 km
1000 à 3000 ft
1500m à 5 km
500 à 1000 ft
800 à 1500m
200 à 500 ft
< 800m
< 200 ft
Symboles :   Orages  Brouillard  Fortes neiges  Fortes précipitations  Vent > 20 kt
SIGMETs :   Divers  Orages  Givrage  Turbulence  Onde Orograph.  Cendres Volcan.







- Altitude de l'aérodrome : 170 ft
- Code IATA : BGO


ENBR - Bergen , Flesland

DERNIER METAR :
  • 170920Z 18018KT 5000 -DZ BR SCT004 BKN008 11/11 Q1000 TEMPO 4000 -RADZ BR RMK WIND 1200FT 18025G36KT

METARs EXPIRÉS :
  • 170850Z 17017KT 6000 -DZ FEW003 BKN008 11/11 Q1000 TEMPO 4000 -RADZ BR RMK WIND 1200FT 18020G35KT
  • 170820Z 18018KT 5000 -RADZ BR FEW003 BKN007 11/11 Q1000 TEMPO 4000 -RADZ BR RMK WIND 1200FT 18025G43KT
  • 170750Z 17018KT 9000 -RADZ SCT008 BKN012 12/11 Q1000 TEMPO 4000 -RADZ BR BKN008 RMK WIND 1200FT 17024G35KT
  • 170720Z 17017KT 9999 VCSH SCT008 BKN012 12/11 Q1000 TEMPO 4000 -RADZ BR BKN008 RMK WIND 1200FT 17021KT
  • 170650Z 17018KT 9999 VCSH FEW007 SCT012 BKN018 12/11 Q1000 RERA TEMPO 4000 -RADZ BR BKN008 RMK WIND 1200FT 18027G43KT

TAF TAF ENBR
Valide du 17 à 06h jusqu'au 18 à 06h UTC


1706/1806 18018KT 9999 -RA SCT015 BKN030
TEMPO 1706/1710 17020G30KT 3000 RADZ BR BKN009
BECMG 1712/1715 VRB05KT
TEMPO 1710/1718 2000 SHRA BR BKN006 SCT020CB
BECMG 1714/1718 35012KT SCT010 BKN020
Pas de NOTAMs connus pour ce terrain.



MET'MAP, la Météo Aéronautique d'un coup d'oeil ! - Copyright ORBIFLY Décembre 2007 - Disclaimer

ORBIFLY MET'MAP TEAM :

Programmation & Développement : Alexandra Zaïnal
Conception & Développement : Baudouin d'Aumeries
Co-Programmation & Développement : Marc-Olivier Méhu
Soutien technique & logistique : Manuel Goepfert

Contact : metmap@orbifly.com




SOURCES & CREDITS :

   NOAA